createdAt,value
2018-01-04T00:01:49.060Z,20.50
2018-01-04T00:04:16.722Z,24.33
2018-01-04T00:06:44.395Z,26.93
2018-01-04T00:09:12.114Z,21.23
2018-01-04T00:11:39.766Z,21.90
2018-01-04T00:14:07.511Z,18.80
2018-01-04T00:16:35.106Z,20.50
2018-01-04T00:19:02.710Z,21.33
2018-01-04T00:21:30.313Z,17.00
2018-01-04T00:23:57.962Z,16.30
2018-01-04T00:26:25.558Z,16.23
2018-01-04T00:28:53.162Z,15.27
2018-01-04T00:31:20.782Z,13.33
2018-01-04T00:33:48.422Z,13.17
2018-01-04T00:36:16.127Z,11.50
2018-01-04T00:38:43.731Z,16.27
2018-01-04T00:41:11.327Z,14.10
2018-01-04T00:43:38.998Z,15.10
2018-01-04T00:46:06.660Z,17.37
2018-01-04T00:48:34.378Z,18.87
2018-01-04T00:51:01.974Z,20.17
2018-01-04T00:53:29.571Z,19.53
2018-01-04T00:55:57.322Z,18.77
2018-01-04T00:58:24.927Z,17.40
2018-01-04T01:00:52.607Z,13.40
2018-01-04T01:03:20.211Z,14.60
2018-01-04T01:05:47.819Z,14.30
2018-01-04T01:08:15.418Z,17.30
2018-01-04T01:10:43.023Z,17.03
2018-01-04T01:13:10.747Z,15.07
2018-01-04T01:15:38.382Z,12.50
2018-01-04T01:18:05.982Z,10.87
2018-01-04T01:20:33.643Z,8.87
2018-01-04T01:23:01.236Z,8.97
2018-01-04T01:25:28.948Z,6.70
2018-01-04T01:27:56.602Z,8.57
2018-01-04T01:30:24.206Z,11.57
2018-01-04T01:32:51.811Z,11.50
2018-01-04T01:35:19.414Z,12.77
2018-01-04T01:37:47.094Z,11.10
2018-01-04T01:40:14.687Z,10.83
2018-01-04T01:42:42.290Z,13.33
2018-01-04T01:45:09.898Z,14.37
2018-01-04T01:47:37.579Z,14.37
2018-01-04T01:50:05.242Z,15.00
2018-01-04T01:52:32.835Z,13.83
2018-01-04T01:55:00.439Z,14.90
2018-01-04T01:57:28.103Z,16.13
2018-01-04T01:59:55.702Z,19.07
2018-01-04T02:02:23.373Z,35.30
2018-01-04T02:04:50.970Z,33.30
2018-01-04T02:07:18.646Z,25.27
2018-01-04T02:09:46.251Z,20.20
2018-01-04T02:12:13.914Z,24.20
2018-01-04T02:14:41.570Z,21.90
2018-01-04T02:17:09.166Z,20.73
2018-01-04T02:19:48.567Z,18.80
2018-01-04T02:22:28.106Z,19.20
2018-01-04T02:25:07.758Z,14.70
2018-01-04T02:27:47.206Z,12.40
2018-01-04T02:30:26.602Z,12.73
2018-01-04T02:33:05.867Z,12.83
2018-01-04T02:35:45.430Z,14.07
2018-01-04T02:38:24.800Z,13.33
2018-01-04T02:41:05.966Z,14.30
2018-01-04T02:43:45.427Z,13.53
2018-01-04T02:46:23.782Z,15.37
2018-01-04T02:48:51.387Z,15.03
2018-01-04T02:51:18.994Z,13.80
2018-01-04T02:53:46.667Z,15.23
2018-01-04T02:56:14.327Z,15.33
2018-01-04T02:58:41.999Z,14.97
2018-01-04T03:01:09.675Z,14.70
2018-01-04T03:03:37.335Z,16.27
2018-01-04T03:06:04.950Z,14.10
2018-01-04T03:08:32.559Z,14.17
2018-01-04T03:11:00.206Z,14.77
2018-01-04T03:13:27.798Z,20.17
2018-01-04T03:15:55.458Z,23.53
2018-01-04T03:18:23.066Z,22.87
2018-01-04T03:20:50.659Z,22.90
2018-01-04T03:23:23.850Z,23.17
2018-01-04T03:25:56.961Z,25.07
2018-01-04T03:28:30.099Z,26.80
2018-01-04T03:31:03.196Z,30.13
2018-01-04T03:33:36.452Z,23.90
2018-01-04T03:36:09.554Z,22.93
2018-01-04T03:38:42.763Z,24.37
2018-01-04T03:41:16.010Z,23.30
2018-01-04T03:43:49.303Z,22.37
2018-01-04T03:46:22.618Z,23.77
2018-01-04T03:48:55.812Z,24.10
2018-01-04T03:51:29.176Z,24.60
2018-01-04T03:54:02.369Z,23.17
2018-01-04T03:56:35.487Z,25.20
2018-01-04T03:59:08.730Z,23.23
2018-01-04T04:01:41.947Z,23.97
2018-01-04T04:04:15.247Z,22.07
2018-01-04T04:06:42.903Z,24.20
2018-01-04T04:09:10.502Z,22.43
2018-01-04T04:11:38.167Z,24.43
2018-01-04T04:14:05.765Z,23.50
2018-01-04T04:16:33.414Z,23.50
2018-01-04T04:19:01.013Z,22.40
2018-01-04T04:21:28.607Z,36.07
2018-01-04T04:23:56.215Z,27.80
2018-01-04T04:26:23.823Z,22.53
2018-01-04T04:28:51.477Z,20.90
2018-01-04T04:31:19.086Z,21.07
2018-01-04T04:33:46.743Z,21.47
2018-01-04T04:36:14.419Z,21.53
2018-01-04T04:38:42.023Z,21.43
2018-01-04T04:41:09.684Z,20.70
2018-01-04T04:43:37.352Z,19.63
2018-01-04T04:46:05.012Z,27.43
2018-01-04T04:48:32.680Z,22.30
2018-01-04T04:51:00.338Z,19.57
2018-01-04T04:53:27.991Z,20.87
2018-01-04T04:55:55.590Z,19.20
2018-01-04T04:58:23.188Z,20.87
2018-01-04T05:00:50.851Z,19.10
2018-01-04T05:03:18.472Z,18.20
2018-01-04T05:05:46.150Z,18.97
2018-01-04T05:08:13.743Z,18.17
2018-01-04T05:10:41.342Z,30.40
2018-01-04T05:13:08.950Z,30.13
2018-01-04T05:15:36.543Z,32.10
2018-01-04T05:18:04.262Z,25.77
2018-01-04T05:20:31.859Z,26.00
2018-01-04T05:22:59.458Z,34.57
2018-01-04T05:25:27.058Z,33.90
2018-01-04T05:27:54.710Z,31.20
2018-01-04T05:30:22.423Z,34.40
2018-01-04T05:32:50.022Z,27.70
2018-01-04T05:35:17.615Z,20.27
2018-01-04T05:37:45.282Z,19.60
2018-01-04T05:40:12.878Z,18.03
2018-01-04T05:42:40.596Z,18.00
2018-01-04T05:45:08.192Z,18.23
2018-01-04T05:47:35.789Z,17.80
2018-01-04T05:50:03.401Z,18.13
2018-01-04T05:52:30.998Z,16.40
2018-01-04T05:54:58.646Z,16.47
2018-01-04T05:57:26.243Z,18.70
2018-01-04T05:59:53.902Z,19.80
2018-01-04T06:02:21.511Z,18.07
2018-01-04T06:04:49.124Z,18.40
2018-01-04T06:07:16.831Z,21.30
2018-01-04T06:09:44.429Z,25.40
2018-01-04T06:12:12.078Z,26.40
2018-01-04T06:14:39.682Z,21.27
2018-01-04T06:17:07.278Z,22.37
2018-01-04T06:19:35.005Z,22.27
2018-01-04T06:22:02.667Z,22.03
2018-01-04T06:24:30.260Z,22.30
2018-01-04T06:26:57.861Z,22.27
2018-01-04T06:29:25.459Z,25.67
2018-01-04T06:31:53.175Z,26.20
2018-01-04T06:34:20.774Z,25.33
2018-01-04T06:36:48.431Z,23.37
2018-01-04T06:39:16.038Z,26.47
2018-01-04T06:41:43.697Z,24.40
2018-01-04T06:44:11.456Z,22.23
2018-01-04T06:46:39.059Z,24.00
2018-01-04T06:49:06.658Z,24.53
2018-01-04T06:51:34.319Z,27.40
2018-01-04T06:54:01.923Z,26.40
2018-01-04T06:56:29.570Z,25.70
2018-01-04T06:58:57.335Z,22.00
2018-01-04T07:01:24.985Z,14.50
2018-01-04T07:03:52.606Z,13.70
2018-01-04T07:06:20.265Z,11.20
2018-01-04T07:08:47.986Z,22.80
2018-01-04T07:11:15.591Z,25.57
2018-01-04T07:13:43.255Z,23.93
2018-01-04T07:16:10.862Z,20.70
2018-01-04T07:18:38.519Z,21.77
2018-01-04T07:21:06.177Z,20.90
2018-01-04T07:23:33.834Z,21.53
2018-01-04T07:26:01.430Z,20.53
2018-01-04T07:28:29.041Z,20.40
2018-01-04T07:30:56.707Z,24.00
2018-01-04T07:33:24.420Z,26.30
2018-01-04T07:35:52.014Z,25.13
2018-01-04T07:38:19.803Z,25.70
2018-01-04T07:40:47.467Z,26.57
2018-01-04T07:43:15.071Z,31.50
2018-01-04T07:45:42.722Z,29.00
2018-01-04T07:48:10.319Z,36.83
2018-01-04T07:50:37.930Z,47.13
2018-01-04T07:53:05.603Z,43.20
2018-01-04T07:55:33.207Z,39.97
2018-01-04T07:58:00.919Z,39.50
2018-01-04T08:00:28.579Z,41.77
2018-01-04T08:02:56.175Z,36.90
2018-01-04T08:05:23.787Z,39.47
2018-01-04T08:07:51.446Z,31.70
2018-01-04T08:10:19.199Z,28.53
2018-01-04T08:12:46.859Z,25.77
2018-01-04T08:15:14.459Z,25.50
2018-01-04T08:17:42.074Z,30.63
2018-01-04T08:20:09.742Z,30.47
2018-01-04T08:22:37.394Z,34.83
2018-01-04T08:25:04.991Z,31.27
2018-01-04T08:27:32.591Z,27.57
2018-01-04T08:30:00.306Z,19.33
2018-01-04T08:32:27.909Z,17.00
2018-01-04T08:34:55.675Z,15.50
2018-01-04T08:37:23.331Z,15.50
2018-01-04T08:39:50.930Z,16.17
2018-01-04T08:42:18.625Z,16.30
2018-01-04T08:44:46.222Z,17.57
2018-01-04T08:47:13.878Z,16.07
2018-01-04T08:49:41.474Z,14.00
2018-01-04T08:52:09.069Z,12.90
2018-01-04T08:54:36.676Z,11.97
2018-01-04T08:57:04.391Z,14.00
2018-01-04T08:59:32.068Z,13.33
2018-01-04T09:01:59.661Z,18.53
2018-01-04T09:04:27.265Z,22.33
2018-01-04T09:06:54.877Z,16.23
2018-01-04T09:09:22.542Z,16.33
2018-01-04T09:11:50.186Z,15.07
2018-01-04T09:14:17.780Z,16.10
2018-01-04T09:16:45.434Z,13.73
2018-01-04T09:19:13.051Z,14.80
2018-01-04T09:21:40.646Z,16.23
2018-01-04T09:24:08.383Z,13.97
2018-01-04T09:26:35.979Z,13.50
2018-01-04T09:29:03.582Z,14.50
2018-01-04T09:31:31.251Z,17.00
2018-01-04T09:33:58.871Z,17.77
2018-01-04T09:36:26.527Z,18.00
2018-01-04T09:38:54.135Z,20.23
2018-01-04T09:41:21.735Z,19.50
2018-01-04T09:43:49.344Z,19.50
2018-01-04T09:46:16.943Z,22.47
2018-01-04T09:48:44.658Z,23.33
2018-01-04T09:51:12.538Z,28.90
2018-01-04T09:53:40.140Z,28.60
2018-01-04T09:56:07.758Z,27.73
2018-01-04T09:58:35.415Z,31.00
2018-01-04T10:01:03.163Z,26.53
2018-01-04T10:03:30.819Z,26.30
2018-01-04T10:05:58.474Z,29.30
2018-01-04T10:08:26.078Z,27.90
2018-01-04T10:10:53.674Z,25.77
2018-01-04T10:13:21.335Z,27.53
2018-01-04T10:15:48.942Z,26.57
2018-01-04T10:18:16.598Z,29.17
2018-01-04T10:20:44.202Z,30.43
2018-01-04T10:23:11.863Z,28.07
2018-01-04T10:25:39.572Z,34.30
2018-01-04T10:28:07.234Z,30.43
2018-01-04T10:30:34.830Z,28.00
2018-01-04T10:33:02.463Z,25.20
2018-01-04T10:35:30.115Z,26.80
2018-01-04T10:37:57.766Z,18.00
2018-01-04T10:40:25.436Z,19.07
2018-01-04T10:42:53.042Z,16.90
2018-01-04T10:45:20.660Z,21.43
2018-01-04T10:47:48.328Z,16.07
2018-01-04T10:50:15.978Z,21.97
2018-01-04T10:52:43.574Z,16.80
2018-01-04T10:55:11.179Z,18.60
2018-01-04T10:57:38.798Z,22.40
2018-01-04T11:00:06.398Z,17.20
2018-01-04T11:02:34.115Z,18.47
2018-01-04T11:05:01.706Z,24.77
2018-01-04T11:07:29.306Z,21.10
2018-01-04T11:09:56.974Z,22.10
2018-01-04T11:12:24.690Z,27.10
2018-01-04T11:14:52.345Z,26.27
2018-01-04T11:17:20.006Z,21.87
2018-01-04T11:19:47.602Z,22.90
2018-01-04T11:22:15.211Z,19.53
2018-01-04T11:24:42.870Z,22.23
2018-01-04T11:27:10.603Z,22.40
2018-01-04T11:29:38.257Z,21.00
2018-01-04T11:32:05.858Z,24.67
2018-01-04T11:34:33.470Z,20.50
2018-01-04T11:37:01.071Z,20.17
2018-01-04T11:39:28.774Z,25.30
